createdAt,value
2022-08-07T00:11:59.054Z,17
2022-08-07T00:13:09.983Z,17
2022-08-07T00:16:27.996Z,16
2022-08-07T00:18:24.214Z,17
2022-08-07T00:20:06.044Z,17
2022-08-07T00:23:40.194Z,18
2022-08-07T00:24:44.542Z,17
2022-08-07T00:26:07.017Z,17
2022-08-07T00:28:11.179Z,18
2022-08-07T00:29:16.066Z,17
2022-08-07T00:30:28.722Z,17
2022-08-07T00:31:41.262Z,18
2022-08-07T00:32:55.468Z,18
2022-08-07T00:33:58.423Z,19
2022-08-07T00:35:00.480Z,18
2022-08-07T00:36:02.899Z,18
2022-08-07T00:37:05.353Z,16
2022-08-07T00:38:13.316Z,16
2022-08-07T00:39:36.034Z,17
2022-08-07T00:40:58.451Z,17
2022-08-07T00:42:05.570Z,18
2022-08-07T00:43:59.892Z,19
2022-08-07T00:45:07.250Z,19
2022-08-07T00:46:18.712Z,18
2022-08-07T00:48:11.242Z,19
2022-08-07T00:50:20.505Z,19
2022-08-07T00:51:58.940Z,20
2022-08-07T00:53:01.327Z,22
2022-08-07T00:54:02.443Z,23
2022-08-07T00:55:10.906Z,23
2022-08-07T00:57:09.372Z,22
2022-08-07T00:58:13.499Z,22
2022-08-07T00:59:15.963Z,21
2022-08-07T01:00:35.962Z,20
2022-08-07T01:01:44.950Z,22
2022-08-07T01:02:46.491Z,21
2022-08-07T01:03:59.846Z,21
2022-08-07T01:05:02.510Z,21
2022-08-07T01:06:24.911Z,21
2022-08-07T01:07:28.494Z,21
2022-08-07T01:08:34.685Z,19
2022-08-07T01:10:11.335Z,20
2022-08-07T01:12:30.868Z,20
2022-08-07T01:13:35.598Z,20
2022-08-07T01:14:37.510Z,21
2022-08-07T01:16:06.207Z,21
2022-08-07T01:17:11.078Z,20
2022-08-07T01:18:18.259Z,19
2022-08-07T01:19:25.544Z,18
2022-08-07T01:20:31.721Z,16
2022-08-07T01:21:43.807Z,15
2022-08-07T01:23:13.094Z,13
2022-08-07T01:24:21.858Z,12
2022-08-07T01:25:56.486Z,11
2022-08-07T01:27:01.349Z,10
2022-08-07T01:28:02.344Z,11
2022-08-07T01:29:04.822Z,11
2022-08-07T01:30:10.997Z,12
2022-08-07T01:31:42.568Z,12
2022-08-07T01:32:50.090Z,11
2022-08-07T01:33:57.524Z,10
2022-08-07T01:34:58.649Z,10
2022-08-07T01:36:07.928Z,11
2022-08-07T01:37:20.309Z,10
2022-08-07T01:38:29.126Z,10
2022-08-07T01:39:47.125Z,9
2022-08-07T01:40:52.834Z,8
2022-08-07T01:42:57.696Z,7
2022-08-07T01:44:04.938Z,7
2022-08-07T01:45:18.442Z,8
2022-08-07T01:46:47.389Z,7
2022-08-07T01:48:27.439Z,7
2022-08-07T01:49:34.117Z,7
2022-08-07T01:50:43.451Z,6
2022-08-07T01:52:05.099Z,6
2022-08-07T01:53:21.657Z,6
2022-08-07T01:55:38.720Z,6
2022-08-07T01:56:41.644Z,6
2022-08-07T01:58:27.589Z,7
2022-08-07T01:59:48.732Z,7
2022-08-07T02:01:10.471Z,7
2022-08-07T02:03:22.189Z,7
2022-08-07T02:04:57.258Z,8
2022-08-07T02:06:01.422Z,8
2022-08-07T02:07:04.247Z,8
2022-08-07T02:08:14.283Z,9
2022-08-07T02:09:58.635Z,8
2022-08-07T02:11:03.921Z,8
2022-08-07T02:12:31.444Z,7
2022-08-07T02:14:02.603Z,7
2022-08-07T02:15:07.209Z,7
2022-08-07T02:16:12.228Z,7
2022-08-07T02:17:27.800Z,7
2022-08-07T02:18:47.443Z,7
2022-08-07T02:20:17.342Z,7
2022-08-07T02:21:28.603Z,7
2022-08-07T02:23:13.644Z,7
2022-08-07T02:24:30.309Z,7
2022-08-07T02:26:34.558Z,9
2022-08-07T02:27:41.489Z,10
2022-08-07T02:28:56.545Z,10
2022-08-07T02:30:07.275Z,10
2022-08-07T02:31:29.281Z,10
2022-08-07T02:32:35.476Z,9
2022-08-07T02:34:18.558Z,9
2022-08-07T02:36:32.845Z,8
2022-08-07T02:37:36.655Z,7
2022-08-07T02:38:57.270Z,7
2022-08-07T02:40:35.243Z,7
2022-08-07T02:41:39.024Z,7
2022-08-07T02:42:58.184Z,7
2022-08-07T02:44:01.338Z,6
2022-08-07T02:45:59.504Z,6
2022-08-07T02:47:05.792Z,6
2022-08-07T02:48:21.257Z,7
2022-08-07T02:49:59.155Z,7
2022-08-07T02:51:04.239Z,7
2022-08-07T02:52:14.713Z,7
2022-08-07T02:53:39.157Z,7
2022-08-07T02:54:48.426Z,7
2022-08-07T02:56:06.491Z,7
2022-08-07T02:57:31.070Z,6
2022-08-07T02:58:47.697Z,6
2022-08-07T03:00:01.090Z,6
2022-08-07T03:01:35.176Z,6
2022-08-07T03:02:52.001Z,6
2022-08-07T03:04:07.033Z,7
2022-08-07T03:05:23.061Z,6
2022-08-07T03:06:35.059Z,5
2022-08-07T03:08:08.017Z,6
2022-08-07T03:09:13.601Z,6
2022-08-07T03:10:56.281Z,5
2022-08-07T03:12:03.605Z,6
2022-08-07T03:13:04.668Z,6
2022-08-07T03:14:10.628Z,6
2022-08-07T03:15:12.322Z,7
2022-08-07T03:17:04.721Z,7
2022-08-07T03:18:09.480Z,7
2022-08-07T03:19:37.461Z,6
2022-08-07T03:20:42.319Z,6
2022-08-07T03:21:51.302Z,7
2022-08-07T03:22:54.051Z,7
2022-08-07T03:24:27.099Z,7
2022-08-07T03:25:41.623Z,7
2022-08-07T03:26:59.462Z,7
2022-08-07T03:28:39.520Z,7
2022-08-07T03:29:51.477Z,6
2022-08-07T03:30:54.737Z,5
2022-08-07T03:31:56.867Z,5
2022-08-07T03:33:01.172Z,5
2022-08-07T03:34:22.459Z,6
2022-08-07T03:35:50.323Z,6
2022-08-07T03:36:53.731Z,6
2022-08-07T03:38:00.044Z,8
2022-08-07T03:39:05.940Z,8
2022-08-07T03:40:17.007Z,8
2022-08-07T03:41:50.835Z,8
2022-08-07T03:42:55.782Z,7
2022-08-07T03:43:58.148Z,7
2022-08-07T03:45:03.731Z,8
2022-08-07T03:46:18.818Z,7
2022-08-07T03:47:51.724Z,6
2022-08-07T03:49:03.436Z,6
2022-08-07T03:50:11.087Z,5
2022-08-07T03:51:14.920Z,5
2022-08-07T03:53:03.665Z,6
2022-08-07T03:54:55.373Z,6
2022-08-07T03:56:14.151Z,6
2022-08-07T03:59:10.249Z,5
2022-08-07T04:00:21.279Z,5
2022-08-07T04:01:46.104Z,5
2022-08-07T04:02:49.981Z,5
2022-08-07T04:03:57.947Z,6
2022-08-07T04:05:08.220Z,5
2022-08-07T04:06:38.871Z,5
2022-08-07T04:07:45.929Z,6
2022-08-07T04:08:53.561Z,6
2022-08-07T04:10:03.054Z,6
2022-08-07T04:12:28.845Z,6
2022-08-07T04:14:36.901Z,6
2022-08-07T04:15:49.975Z,7
2022-08-07T04:16:59.080Z,6
2022-08-07T04:19:00.155Z,7
2022-08-07T04:20:20.239Z,7
2022-08-07T04:21:23.826Z,7
2022-08-07T04:22:34.169Z,7
2022-08-07T04:24:05.936Z,7
2022-08-07T04:25:39.258Z,7
2022-08-07T04:26:44.051Z,7
2022-08-07T04:28:01.216Z,7
2022-08-07T04:29:04.518Z,7
2022-08-07T04:30:39.653Z,7
2022-08-07T04:32:10.710Z,6
2022-08-07T04:33:15.976Z,7
2022-08-07T04:34:33.135Z,6
2022-08-07T04:35:40.609Z,6
2022-08-07T04:36:45.540Z,6
2022-08-07T04:38:07.035Z,6
2022-08-07T04:39:12.932Z,5
2022-08-07T04:40:53.282Z,5
2022-08-07T04:41:58.799Z,5
2022-08-07T04:43:03.903Z,6
2022-08-07T04:44:19.505Z,7
2022-08-07T04:46:02.236Z,7
2022-08-07T04:47:09.197Z,7
2022-08-07T04:48:11.321Z,7
2022-08-07T04:49:25.661Z,6
2022-08-07T04:50:39.953Z,7
2022-08-07T04:51:42.880Z,7
2022-08-07T04:52:52.931Z,8
2022-08-07T04:54:06.891Z,8
2022-08-07T04:58:26.518Z,7
2022-08-07T05:01:33.057Z,7
2022-08-07T05:02:35.863Z,7
2022-08-07T05:04:08.942Z,7
2022-08-07T05:05:57.289Z,7
2022-08-07T05:07:30.765Z,7
2022-08-07T05:09:02.269Z,6
2022-08-07T05:10:11.841Z,7
2022-08-07T05:11:24.455Z,7
2022-08-07T05:15:03.377Z,6
2022-08-07T05:16:13.933Z,6
2022-08-07T05:17:53.262Z,5
2022-08-07T05:18:59.355Z,6
2022-08-07T05:20:10.154Z,6
2022-08-07T05:21:15.189Z,6
2022-08-07T05:23:05.867Z,7
2022-08-07T05:24:24.764Z,6
2022-08-07T05:26:19.000Z,6
2022-08-07T05:28:20.905Z,7
2022-08-07T05:29:52.277Z,7
2022-08-07T05:30:59.005Z,6
2022-08-07T05:32:08.701Z,7
2022-08-07T05:33:15.200Z,7
2022-08-07T05:34:27.886Z,6
2022-08-07T05:35:46.305Z,6
2022-08-07T05:36:53.517Z,6
2022-08-07T05:38:10.195Z,6
2022-08-07T05:40:16.902Z,7
2022-08-07T05:41:23.289Z,7
2022-08-07T05:43:11.792Z,8
2022-08-07T05:45:26.432Z,7
2022-08-07T05:47:01.154Z,7
2022-08-07T05:49:13.200Z,7
2022-08-07T05:50:22.712Z,6
2022-08-07T05:51:24.869Z,6
2022-08-07T05:52:40.258Z,6
2022-08-07T05:54:31.633Z,6
2022-08-07T05:56:16.727Z,6
2022-08-07T05:57:20.400Z,7
2022-08-07T05:58:37.201Z,7
2022-08-07T05:59:58.673Z,7
2022-08-07T06:01:10.371Z,7
2022-08-07T06:02:29.738Z,6
2022-08-07T06:04:00.958Z,6
2022-08-07T06:05:38.240Z,7
2022-08-07T06:07:04.930Z,7
2022-08-07T06:08:31.637Z,7
2022-08-07T06:10:06.420Z,8
2022-08-07T06:11:16.788Z,8
2022-08-07T06:12:33.079Z,8
2022-08-07T06:14:20.777Z,9
2022-08-07T06:15:43.009Z,8
2022-08-07T06:16:57.189Z,8
2022-08-07T06:18:09.066Z,8
2022-08-07T06:19:18.383Z,8
2022-08-07T06:22:24.245Z,8
2022-08-07T06:24:58.238Z,7
2022-08-07T06:26:04.787Z,8
2022-08-07T06:27:43.879Z,8
2022-08-07T06:29:06.785Z,8
2022-08-07T06:30:37.315Z,8
2022-08-07T06:31:53.686Z,8
2022-08-07T06:32:54.966Z,7
2022-08-07T06:34:00.553Z,8
2022-08-07T06:35:17.655Z,8
2022-08-07T06:36:38.386Z,8
2022-08-07T06:38:19.289Z,8
2022-08-07T06:40:17.112Z,7
2022-08-07T06:42:03.372Z,8
2022-08-07T06:43:22.354Z,8
2022-08-07T06:44:24.700Z,9
2022-08-07T06:45:44.832Z,10
2022-08-07T06:47:10.774Z,10
2022-08-07T06:48:25.493Z,10
2022-08-07T06:49:29.565Z,9
2022-08-07T06:50:30.887Z,9
2022-08-07T06:51:34.300Z,10
2022-08-07T06:52:53.332Z,10
2022-08-07T06:55:48.203Z,9
2022-08-07T06:57:17.003Z,10
2022-08-07T07:00:16.920Z,9
2022-08-07T07:01:22.264Z,10
2022-08-07T07:03:01.068Z,10
2022-08-07T07:04:33.869Z,11
2022-08-07T07:06:06.398Z,10
2022-08-07T07:08:04.133Z,10
2022-08-07T07:09:31.829Z,9
2022-08-07T07:10:57.824Z,9
2022-08-07T07:14:01.669Z,9
2022-08-07T07:15:35.949Z,9
2022-08-07T07:16:53.417Z,9
2022-08-07T07:17:59.916Z,10
2022-08-07T07:19:59.082Z,10
2022-08-07T07:21:00.298Z,10
2022-08-07T07:24:05.733Z,11
2022-08-07T07:26:37.097Z,11
2022-08-07T07:28:07.678Z,12
2022-08-07T07:31:46.551Z,12
2022-08-07T07:32:50.451Z,11
2022-08-07T07:33:57.458Z,10
2022-08-07T07:35:03.931Z,9
2022-08-07T07:36:17.222Z,10
2022-08-07T07:37:59.280Z,10
2022-08-07T07:39:13.723Z,11
2022-08-07T07:40:15.941Z,11
2022-08-07T07:41:17.223Z,10
2022-08-07T07:42:21.371Z,11
2022-08-07T07:44:26.176Z,11
2022-08-07T07:46:55.976Z,12
2022-08-07T07:48:36.554Z,13
2022-08-07T07:50:39.199Z,13
2022-08-07T07:51:59.549Z,15
2022-08-07T07:53:01.268Z,14
2022-08-07T07:54:03.077Z,15
2022-08-07T07:55:05.939Z,16
2022-08-07T07:56:07.478Z,16
2022-08-07T07:57:12.504Z,17
2022-08-07T07:58:19.033Z,17
2022-08-07T07:59:54.077Z,16
2022-08-07T08:00:59.800Z,15
2022-08-07T08:04:11.891Z,15
2022-08-07T08:05:22.810Z,14
2022-08-07T08:07:02.746Z,14
2022-08-07T08:08:36.785Z,14
2022-08-07T08:10:05.795Z,15
2022-08-07T08:12:00.163Z,16
2022-08-07T08:13:14.943Z,17
2022-08-07T08:14:24.671Z,16
2022-08-07T08:16:00.502Z,16
2022-08-07T08:17:58.630Z,16
2022-08-07T08:20:26.319Z,16
2022-08-07T08:22:03.936Z,16
2022-08-07T08:23:14.602Z,14
2022-08-07T08:24:46.568Z,13
2022-08-07T08:26:50.972Z,13
2022-08-07T08:28:03.785Z,14
2022-08-07T08:29:05.195Z,14
2022-08-07T08:30:17.425Z,14
2022-08-07T08:32:16.706Z,13
2022-08-07T08:33:50.073Z,12
2022-08-07T08:34:58.818Z,13
2022-08-07T08:36:01.505Z,13
2022-08-07T08:38:03.302Z,13
2022-08-07T08:39:19.674Z,13
2022-08-07T08:40:29.308Z,14
2022-08-07T08:41:59.467Z,14
2022-08-07T08:43:02.367Z,13
2022-08-07T08:44:03.636Z,13
2022-08-07T08:45:13.770Z,11
2022-08-07T08:46:21.868Z,11
2022-08-07T08:47:30.371Z,12
2022-08-07T08:48:55.977Z,12
2022-08-07T08:50:06.016Z,13
2022-08-07T08:51:50.025Z,12
2022-08-07T08:53:19.929Z,12
2022-08-07T08:54:24.352Z,13
2022-08-07T08:55:59.285Z,14
2022-08-07T08:57:02.469Z,14
2022-08-07T08:58:04.302Z,14
2022-08-07T08:59:48.320Z,13
2022-08-07T09:00:52.973Z,14
2022-08-07T09:02:02.798Z,13
2022-08-07T09:03:11.313Z,13
2022-08-07T09:04:47.963Z,14
2022-08-07T09:05:49.219Z,13
2022-08-07T09:06:50.201Z,13
2022-08-07T09:07:58.902Z,13
2022-08-07T09:09:02.201Z,13
2022-08-07T09:10:44.457Z,14
2022-08-07T09:12:00.765Z,15
2022-08-07T09:13:38.246Z,14
2022-08-07T09:14:51.137Z,14
2022-08-07T09:18:06.028Z,13
2022-08-07T09:19:54.825Z,12
2022-08-07T09:21:01.703Z,13
2022-08-07T09:24:54.581Z,14
2022-08-07T09:26:28.991Z,14
2022-08-07T09:27:59.939Z,14
2022-08-07T09:30:08.207Z,14
2022-08-07T09:31:15.870Z,14
2022-08-07T09:32:21.507Z,13
2022-08-07T09:33:53.392Z,13
2022-08-07T09:36:05.496Z,12
2022-08-07T09:37:12.311Z,13
2022-08-07T09:38:15.526Z,13
2022-08-07T09:39:57.805Z,13
2022-08-07T09:41:03.784Z,13
2022-08-07T09:42:09.155Z,13
2022-08-07T09:44:20.079Z,13
2022-08-07T09:50:18.787Z,14
2022-08-07T09:52:35.199Z,15
2022-08-07T09:53:48.961Z,16
2022-08-07T09:55:04.641Z,20
2022-08-07T09:56:42.252Z,21
2022-08-07T09:57:47.885Z,21
2022-08-07T09:58:51.410Z,21
2022-08-07T10:00:01.883Z,19
2022-08-07T10:01:50.675Z,20
2022-08-07T10:02:56.682Z,20
2022-08-07T10:04:14.488Z,19
2022-08-07T10:06:04.518Z,18
2022-08-07T10:07:31.965Z,19
2022-08-07T10:08:58.919Z,20
2022-08-07T10:10:03.496Z,20
2022-08-07T10:12:03.568Z,23
2022-08-07T10:14:02.415Z,24
2022-08-07T10:15:07.160Z,23
2022-08-07T10:16:20.411Z,22
2022-08-07T10:17:25.536Z,19
2022-08-07T10:19:11.795Z,17
2022-08-07T10:20:13.751Z,17
2022-08-07T10:22:17.065Z,19
2022-08-07T10:24:09.923Z,22
2022-08-07T10:25:23.508Z,25
2022-08-07T10:26:53.798Z,26
2022-08-07T10:27:57.204Z,25
2022-08-07T10:29:03.272Z,22
2022-08-07T10:30:06.850Z,19
2022-08-07T10:31:15.458Z,19
2022-08-07T10:32:54.265Z,20
2022-08-07T10:34:15.854Z,19
2022-08-07T10:36:05.414Z,20
2022-08-07T10:38:21.944Z,19
2022-08-07T10:40:06.330Z,16
2022-08-07T10:41:52.905Z,16
2022-08-07T10:43:37.446Z,16
2022-08-07T10:44:46.066Z,16
2022-08-07T10:45:58.714Z,16
2022-08-07T10:47:11.630Z,16
2022-08-07T10:48:20.631Z,15
2022-08-07T10:49:51.855Z,15
2022-08-07T10:50:57.777Z,15
2022-08-07T10:52:14.201Z,16
2022-08-07T10:53:22.843Z,16
2022-08-07T10:54:27.941Z,16
2022-08-07T10:55:39.046Z,16
2022-08-07T10:56:43.070Z,15
2022-08-07T10:57:56.225Z,16
2022-08-07T10:59:02.443Z,17
2022-08-07T11:00:03.999Z,15
2022-08-07T11:01:12.513Z,15
2022-08-07T11:02:34.935Z,14
2022-08-07T11:04:05.668Z,13
2022-08-07T11:05:51.399Z,13
2022-08-07T11:06:55.938Z,14
2022-08-07T11:08:03.851Z,15
2022-08-07T11:09:11.862Z,15
2022-08-07T11:11:14.524Z,16
2022-08-07T11:12:35.243Z,16
2022-08-07T11:14:57.612Z,16
2022-08-07T11:16:07.487Z,15
2022-08-07T11:17:12.918Z,15
2022-08-07T11:18:51.789Z,15
2022-08-07T11:19:56.596Z,15
2022-08-07T11:20:59.146Z,16
2022-08-07T11:22:00.823Z,16
2022-08-07T11:23:07.359Z,16
2022-08-07T11:24:14.316Z,16
2022-08-07T11:25:16.274Z,17
2022-08-07T11:26:25.047Z,16
2022-08-07T11:28:03.975Z,17
2022-08-07T11:29:47.319Z,17
2022-08-07T11:31:45.391Z,16
2022-08-07T11:32:47.450Z,16
2022-08-07T11:34:00.926Z,15
2022-08-07T11:35:09.655Z,15
2022-08-07T11:36:11.152Z,15
2022-08-07T11:37:24.648Z,14
2022-08-07T11:39:23.604Z,15
2022-08-07T11:41:03.752Z,15
2022-08-07T11:42:06.204Z,16
2022-08-07T11:44:12.879Z,17
2022-08-07T11:45:23.674Z,16
2022-08-07T11:46:40.950Z,16
2022-08-07T11:48:02.723Z,16
2022-08-07T11:50:33.112Z,16
2022-08-07T11:51:45.172Z,16
2022-08-07T11:52:48.470Z,16
2022-08-07T11:54:02.710Z,16
2022-08-07T11:56:09.887Z,17
2022-08-07T11:58:04.657Z,18
2022-08-07T12:00:18.577Z,18
2022-08-07T12:02:01.322Z,19
2022-08-07T12:03:04.316Z,19
2022-08-07T12:04:48.963Z,18
2022-08-07T12:05:59.923Z,19
2022-08-07T12:08:05.163Z,18
2022-08-07T12:09:35.890Z,19
2022-08-07T12:10:42.226Z,18
2022-08-07T12:12:11.538Z,18
2022-08-07T12:13:18.885Z,21
2022-08-07T12:15:00.214Z,20
2022-08-07T12:16:09.058Z,22
2022-08-07T12:17:34.421Z,21
2022-08-07T12:18:45.737Z,19
2022-08-07T12:20:10.456Z,20
2022-08-07T12:22:47.146Z,19
2022-08-07T12:24:40.272Z,20
2022-08-07T12:26:29.262Z,19
2022-08-07T12:28:10.878Z,19
2022-08-07T12:29:23.377Z,18
2022-08-07T12:30:47.181Z,17
2022-08-07T12:32:04.731Z,17
2022-08-07T12:33:23.585Z,16
2022-08-07T12:35:14.083Z,17
2022-08-07T12:36:15.781Z,17
2022-08-07T12:37:28.020Z,17
2022-08-07T12:39:58.808Z,16
2022-08-07T12:41:02.734Z,16
2022-08-07T12:42:13.224Z,16
2022-08-07T12:44:05.454Z,17
2022-08-07T12:45:18.216Z,17
2022-08-07T12:46:34.552Z,17
2022-08-07T12:47:40.927Z,16
2022-08-07T12:48:53.606Z,15
2022-08-07T12:50:34.527Z,15
2022-08-07T12:52:18.274Z,15
2022-08-07T12:53:24.926Z,16
2022-08-07T12:56:04.023Z,17
2022-08-07T12:57:22.780Z,18
2022-08-07T12:59:08.633Z,17
2022-08-07T13:00:36.136Z,18
2022-08-07T13:01:57.397Z,18
2022-08-07T13:02:59.925Z,18
2022-08-07T13:04:32.626Z,18
2022-08-07T13:06:21.774Z,17
2022-08-07T13:08:18.664Z,17
2022-08-07T13:10:43.914Z,17
2022-08-07T13:12:09.988Z,17
2022-08-07T13:13:50.095Z,17
2022-08-07T13:14:56.962Z,18
2022-08-07T13:15:59.611Z,18
2022-08-07T13:17:05.785Z,18
2022-08-07T13:18:28.169Z,17
2022-08-07T13:19:51.477Z,16
2022-08-07T13:20:56.450Z,17
2022-08-07T13:22:28.329Z,16
2022-08-07T13:24:04.918Z,17
2022-08-07T13:25:06.235Z,16
2022-08-07T13:26:18.230Z,15
2022-08-07T13:28:14.086Z,14
2022-08-07T13:29:35.042Z,14
2022-08-07T13:30:53.329Z,15
2022-08-07T13:32:37.491Z,15
2022-08-07T13:34:35.616Z,15
2022-08-07T13:36:05.472Z,14
2022-08-07T13:37:21.861Z,13
2022-08-07T13:38:24.782Z,14
2022-08-07T13:40:42.545Z,15
2022-08-07T13:41:50.026Z,15
2022-08-07T13:42:57.414Z,15
2022-08-07T13:43:59.845Z,15
2022-08-07T13:46:21.961Z,16
2022-08-07T13:48:10.437Z,16
2022-08-07T13:50:44.371Z,15
2022-08-07T13:54:01.925Z,15
2022-08-07T13:55:06.662Z,14
2022-08-07T13:56:40.673Z,17
2022-08-07T13:58:02.802Z,18
2022-08-07T13:59:05.955Z,19
2022-08-07T14:00:27.310Z,18
2022-08-07T14:01:59.317Z,17
2022-08-07T14:03:06.677Z,18
2022-08-07T14:04:08.853Z,18
2022-08-07T14:05:11.138Z,20
2022-08-07T14:06:17.745Z,19
2022-08-07T14:07:19.469Z,18
2022-08-07T14:08:25.221Z,18
2022-08-07T14:10:21.854Z,18
2022-08-07T14:12:00.909Z,17
2022-08-07T14:13:33.798Z,17
2022-08-07T14:14:35.914Z,16
2022-08-07T14:15:40.130Z,15
2022-08-07T14:16:50.905Z,15
2022-08-07T14:18:30.567Z,15
2022-08-07T14:20:48.996Z,15
2022-08-07T14:22:13.483Z,14
2022-08-07T14:24:02.138Z,14
2022-08-07T14:25:08.385Z,14
2022-08-07T14:26:31.757Z,15
2022-08-07T14:28:13.676Z,15
2022-08-07T14:30:11.501Z,14
2022-08-07T14:31:56.169Z,14
2022-08-07T14:33:00.655Z,15
2022-08-07T14:34:11.169Z,16
2022-08-07T14:35:47.462Z,16
2022-08-07T15:53:05.149Z,15
2022-08-07T15:54:12.408Z,14
2022-08-07T15:55:13.384Z,13
2022-08-07T15:56:15.264Z,12
2022-08-07T15:57:49.361Z,12
2022-08-07T15:58:53.051Z,12
2022-08-07T15:59:56.793Z,13
2022-08-07T16:01:08.989Z,12
2022-08-07T16:02:15.757Z,12
2022-08-07T16:03:54.351Z,12
2022-08-07T16:05:01.611Z,12
2022-08-07T16:06:16.468Z,12
2022-08-07T16:08:38.027Z,12
2022-08-07T16:09:42.836Z,12
2022-08-07T16:10:48.688Z,12
2022-08-07T16:11:52.576Z,12
2022-08-07T16:13:17.389Z,11
2022-08-07T16:15:06.285Z,11
2022-08-07T16:17:16.242Z,11
2022-08-07T16:19:09.927Z,10
2022-08-07T16:20:34.833Z,10
2022-08-07T16:22:08.813Z,10
2022-08-07T16:23:59.363Z,11
2022-08-07T16:25:01.002Z,11
2022-08-07T16:26:14.889Z,11
2022-08-07T16:27:41.529Z,11
2022-08-07T16:30:29.381Z,10
2022-08-07T16:31:58.476Z,10
2022-08-07T16:34:09.878Z,10
2022-08-07T16:35:59.915Z,11
2022-08-07T16:38:11.410Z,12
2022-08-07T16:39:21.106Z,12
2022-08-07T16:41:04.457Z,12
2022-08-07T16:42:10.537Z,13
2022-08-07T16:44:02.215Z,11
2022-08-07T16:50:13.854Z,11
2022-08-07T16:54:06.920Z,11
2022-08-07T16:55:21.225Z,10
2022-08-07T16:56:23.389Z,11
2022-08-07T16:58:04.042Z,12
2022-08-07T16:59:17.984Z,12
2022-08-07T17:00:31.225Z,13
2022-08-07T17:01:34.878Z,13
2022-08-07T17:02:54.138Z,11
2022-08-07T17:04:08.297Z,11
2022-08-07T17:06:33.088Z,10
2022-08-07T17:08:09.423Z,9
2022-08-07T17:10:09.153Z,10
2022-08-07T17:12:34.649Z,10
2022-08-07T17:14:22.064Z,9
2022-08-07T17:15:50.429Z,9
2022-08-07T17:16:56.916Z,9
2022-08-07T17:17:59.021Z,9
2022-08-07T17:19:03.204Z,9
2022-08-07T17:21:23.163Z,9
2022-08-07T17:22:38.514Z,10
2022-08-07T17:23:46.585Z,11
2022-08-07T17:24:48.224Z,12
2022-08-07T17:25:53.118Z,12
2022-08-07T17:26:56.020Z,12
2022-08-07T17:27:58.237Z,11
2022-08-07T17:29:05.077Z,11
2022-08-07T17:30:19.766Z,12
2022-08-07T17:31:29.973Z,11
2022-08-07T17:32:36.059Z,11
2022-08-07T17:34:36.813Z,10
2022-08-07T17:37:14.435Z,9
2022-08-07T17:40:07.847Z,9
2022-08-07T17:42:06.873Z,9
2022-08-07T17:43:18.769Z,10
2022-08-07T17:45:42.732Z,11
2022-08-07T17:46:53.218Z,11
2022-08-07T17:47:56.612Z,11
2022-08-07T17:49:00.530Z,12
2022-08-07T17:50:19.199Z,10
2022-08-07T17:51:23.362Z,11
2022-08-07T17:53:06.328Z,11
2022-08-07T17:54:56.047Z,11
2022-08-07T17:56:07.335Z,11
2022-08-07T17:58:01.251Z,11
2022-08-07T17:59:19.658Z,12
2022-08-07T18:00:34.839Z,12
2022-08-07T18:01:57.083Z,12
2022-08-07T18:03:00.093Z,12
2022-08-07T18:04:20.002Z,13
2022-08-07T18:06:06.564Z,12
2022-08-07T18:07:45.144Z,13
2022-08-07T18:09:06.455Z,14
2022-08-07T18:10:33.279Z,15
2022-08-07T18:12:28.783Z,15
2022-08-07T18:13:41.580Z,15
2022-08-07T18:14:46.632Z,15
2022-08-07T18:15:53.953Z,14
2022-08-07T18:16:59.059Z,14
2022-08-07T18:21:29.747Z,14
2022-08-07T18:23:46.784Z,15
2022-08-07T18:25:01.788Z,14
2022-08-07T18:26:43.043Z,16
2022-08-07T18:27:45.950Z,15
2022-08-07T18:28:59.493Z,15
2022-08-07T18:30:36.925Z,15
2022-08-07T18:31:51.204Z,14
2022-08-07T18:32:52.407Z,15
2022-08-07T18:33:56.044Z,15
2022-08-07T18:35:02.146Z,15
2022-08-07T18:36:08.069Z,15
2022-08-07T18:37:13.066Z,15
2022-08-07T18:42:04.495Z,16
2022-08-07T18:43:15.241Z,16
2022-08-07T18:46:22.434Z,19
2022-08-07T18:47:45.955Z,21
2022-08-07T18:50:45.832Z,20
2022-08-07T18:52:55.282Z,21
2022-08-07T18:54:31.659Z,23
2022-08-07T18:55:57.534Z,24
2022-08-07T18:57:31.621Z,27
2022-08-07T18:58:41.692Z,32
2022-08-07T18:59:59.213Z,32
2022-08-07T19:02:36.215Z,32
2022-08-07T19:03:52.356Z,29
2022-08-07T19:05:17.493Z,25
2022-08-07T19:06:34.341Z,21
2022-08-07T19:07:36.362Z,20
2022-08-07T19:09:58.931Z,20
2022-08-07T19:11:00.271Z,20
2022-08-07T19:12:53.522Z,20
2022-08-07T19:14:26.478Z,20
2022-08-07T19:17:06.273Z,18
2022-08-07T19:19:13.377Z,17
2022-08-07T19:20:30.561Z,17
2022-08-07T19:21:55.934Z,17
2022-08-07T19:23:19.533Z,16
2022-08-07T19:25:07.558Z,15
2022-08-07T19:29:02.861Z,14
2022-08-07T19:33:58.553Z,13
2022-08-07T19:35:05.474Z,13
2022-08-07T19:36:09.056Z,13
2022-08-07T19:37:22.223Z,13
2022-08-07T19:39:00.559Z,13
2022-08-07T19:40:14.502Z,14
2022-08-07T19:42:22.641Z,15
2022-08-07T19:43:52.264Z,13
2022-08-07T19:46:10.619Z,14
2022-08-07T19:47:14.789Z,14
2022-08-07T19:48:24.785Z,13
2022-08-07T19:50:03.103Z,13
2022-08-07T19:52:01.366Z,13
2022-08-07T19:54:44.791Z,13
2022-08-07T19:55:58.822Z,14
2022-08-07T19:58:13.629Z,14
2022-08-07T19:59:18.688Z,14
2022-08-07T20:00:55.743Z,14
2022-08-07T20:01:58.257Z,13
2022-08-07T20:03:00.238Z,13
2022-08-07T20:04:04.558Z,12
2022-08-07T20:05:11.578Z,13
2022-08-07T20:06:30.625Z,14
2022-08-07T20:07:50.749Z,14
2022-08-07T20:09:00.157Z,14
2022-08-07T20:10:54.316Z,14
2022-08-07T20:12:35.087Z,14
2022-08-07T20:13:44.133Z,14
2022-08-07T20:14:58.832Z,16
2022-08-07T20:16:01.300Z,15
2022-08-07T20:17:04.057Z,15
2022-08-07T20:18:20.033Z,15
2022-08-07T20:19:58.842Z,14
2022-08-07T20:21:22.813Z,15
2022-08-07T20:22:52.934Z,15
2022-08-07T20:24:00.715Z,14
2022-08-07T20:25:06.510Z,14
2022-08-07T20:26:45.344Z,13
2022-08-07T20:28:05.708Z,12
2022-08-07T20:29:47.459Z,13
2022-08-07T20:31:07.556Z,12
2022-08-07T20:32:40.989Z,12
2022-08-07T20:33:44.694Z,12
2022-08-07T20:34:57.939Z,13
2022-08-07T20:36:04.198Z,14
2022-08-07T20:37:07.301Z,14
2022-08-07T20:38:09.777Z,14
2022-08-07T20:40:05.229Z,14
2022-08-07T20:41:52.975Z,14
2022-08-07T20:42:56.686Z,15
2022-08-07T20:43:58.223Z,15
2022-08-07T20:44:59.764Z,15
2022-08-07T20:46:33.586Z,15
2022-08-07T20:47:58.417Z,15
2022-08-07T20:50:02.497Z,16
2022-08-07T20:51:20.225Z,15
2022-08-07T20:52:52.748Z,16
2022-08-07T20:54:12.331Z,16
2022-08-07T20:55:38.855Z,16
2022-08-07T20:56:53.214Z,17
2022-08-07T20:58:09.112Z,17
2022-08-07T21:00:09.656Z,17
2022-08-07T21:01:20.305Z,17
2022-08-07T21:02:28.462Z,16
2022-08-07T21:03:38.144Z,16
2022-08-07T21:05:58.880Z,16
2022-08-07T21:07:19.562Z,16
2022-08-07T21:08:40.793Z,19
2022-08-07T21:10:11.574Z,23
2022-08-07T21:11:51.893Z,25
2022-08-07T21:13:00.748Z,25
2022-08-07T21:14:34.770Z,26
2022-08-07T21:16:00.689Z,24
2022-08-07T21:18:28.216Z,22
2022-08-07T21:20:06.111Z,22
2022-08-07T21:21:27.846Z,18
2022-08-07T21:23:10.983Z,18
2022-08-07T21:24:28.506Z,18
2022-08-07T21:25:43.647Z,17
2022-08-07T21:27:07.365Z,17
2022-08-07T21:28:09.253Z,18
2022-08-07T21:29:53.518Z,17
2022-08-07T21:30:58.314Z,17
2022-08-07T21:32:49.731Z,17
2022-08-07T21:33:54.664Z,17
2022-08-07T21:34:55.967Z,17
2022-08-07T21:36:30.944Z,17
2022-08-07T21:38:00.373Z,17
2022-08-07T21:39:51.443Z,16
2022-08-07T21:40:58.779Z,17
2022-08-07T21:42:37.306Z,17
2022-08-07T21:43:57.112Z,17
2022-08-07T21:46:24.385Z,17
2022-08-07T21:47:35.756Z,17
2022-08-07T21:48:57.697Z,17
2022-08-07T21:50:03.468Z,17
2022-08-07T21:51:06.726Z,17
2022-08-07T21:52:33.990Z,17
2022-08-07T21:53:52.615Z,17
2022-08-07T21:54:58.153Z,20
2022-08-07T21:56:02.297Z,20
2022-08-07T21:57:03.962Z,25
2022-08-07T21:58:32.194Z,28
2022-08-07T22:00:06.095Z,28
2022-08-07T22:02:13.643Z,29
2022-08-07T22:03:32.017Z,24
2022-08-07T22:04:33.572Z,21
2022-08-07T22:05:48.674Z,20
2022-08-07T22:06:53.124Z,19
2022-08-07T22:08:01.798Z,18
2022-08-07T22:09:55.214Z,18
2022-08-07T22:10:56.393Z,17
2022-08-07T22:12:07.550Z,16
2022-08-07T22:13:15.309Z,16
2022-08-07T22:14:34.659Z,16
2022-08-07T22:16:46.769Z,16
2022-08-07T22:18:07.187Z,17
2022-08-07T22:19:30.596Z,18
2022-08-07T22:22:04.976Z,20
2022-08-07T22:23:44.931Z,21
2022-08-07T22:25:17.452Z,19
2022-08-07T22:26:44.835Z,19
2022-08-07T22:28:32.314Z,18
2022-08-07T22:29:48.093Z,18
2022-08-07T22:30:53.442Z,20
2022-08-07T22:32:06.505Z,25
2022-08-07T22:33:09.747Z,33
2022-08-07T22:34:17.069Z,36
2022-08-07T22:35:43.868Z,38
2022-08-07T22:36:53.220Z,34
2022-08-07T22:38:05.455Z,26
2022-08-07T22:39:07.475Z,23
2022-08-07T22:40:09.409Z,20